createdAt,value
2018-06-15T00:00:47.428Z,13.63
2018-06-15T00:03:15.699Z,13.72
2018-06-15T00:05:43.696Z,13.80
2018-06-15T00:08:11.792Z,13.83
2018-06-15T00:10:39.827Z,13.83
2018-06-15T00:13:07.873Z,13.86
2018-06-15T00:15:35.985Z,13.98
2018-06-15T00:18:04.142Z,14.03
2018-06-15T00:20:32.177Z,14.05
2018-06-15T00:23:00.181Z,14.09
2018-06-15T00:25:28.210Z,14.18
2018-06-15T00:27:56.303Z,14.22
2018-06-15T00:30:24.357Z,14.27
2018-06-15T00:32:52.417Z,14.27
2018-06-15T00:35:20.537Z,14.36
2018-06-15T00:37:48.531Z,14.30
2018-06-15T00:40:16.545Z,14.32
2018-06-15T00:42:44.574Z,14.47
2018-06-15T00:45:12.569Z,14.60
2018-06-15T00:47:40.901Z,14.58
2018-06-15T00:50:09.074Z,14.43
2018-06-15T00:52:37.136Z,14.43
2018-06-15T00:55:05.163Z,14.43
2018-06-15T00:57:43.363Z,14.39
2018-06-15T01:00:11.311Z,14.41
2018-06-15T01:02:39.329Z,14.42
2018-06-15T01:05:07.499Z,14.48
2018-06-15T01:07:35.588Z,14.43
2018-06-15T01:10:03.677Z,14.49
2018-06-15T01:12:31.730Z,14.41
2018-06-15T01:14:59.735Z,14.38
2018-06-15T01:17:27.804Z,14.38
2018-06-15T01:19:56.314Z,14.37
2018-06-15T01:22:24.331Z,14.37
2018-06-15T01:24:52.362Z,14.43
2018-06-15T01:27:20.421Z,14.37
2018-06-15T01:29:48.434Z,14.26
2018-06-15T01:32:16.466Z,14.24
2018-06-15T01:34:44.553Z,14.21
2018-06-15T01:37:12.606Z,14.14
2018-06-15T01:39:40.691Z,14.15
2018-06-15T01:42:08.689Z,14.13
2018-06-15T01:44:36.665Z,14.10
2018-06-15T01:47:04.637Z,14.14
2018-06-15T01:49:32.654Z,14.17
2018-06-15T01:52:00.740Z,14.12
2018-06-15T01:54:28.772Z,14.13
2018-06-15T01:56:56.808Z,14.23
2018-06-15T01:59:24.747Z,14.12
2018-06-15T02:01:52.708Z,14.05
2018-06-15T02:04:20.697Z,14.17
2018-06-15T02:06:48.783Z,14.13
2018-06-15T02:09:16.833Z,14.08
2018-06-15T02:11:44.829Z,14.01
2018-06-15T02:14:12.904Z,14.06
2018-06-15T02:16:40.964Z,14.05
2018-06-15T02:19:09.041Z,14.06
2018-06-15T02:21:37.020Z,14.04
2018-06-15T02:24:05.140Z,14.04
2018-06-15T02:26:33.127Z,14.02
2018-06-15T02:29:01.112Z,13.95
2018-06-15T02:31:29.186Z,13.95
2018-06-15T02:33:57.165Z,14.01
2018-06-15T02:36:25.199Z,14.05
2018-06-15T02:38:53.290Z,14.01
2018-06-15T02:41:21.336Z,13.97
2018-06-15T02:43:49.419Z,13.97
2018-06-15T02:46:17.556Z,13.95
2018-06-15T02:48:45.634Z,13.91
2018-06-15T02:51:13.830Z,13.87
2018-06-15T02:53:41.914Z,13.92
2018-06-15T02:56:10.004Z,13.88
2018-06-15T02:58:38.007Z,13.89
2018-06-15T03:01:06.068Z,13.92
2018-06-15T03:03:34.041Z,13.96
2018-06-15T03:06:02.040Z,13.92
2018-06-15T03:08:30.074Z,13.89
2018-06-15T03:10:58.126Z,13.92
2018-06-15T03:13:26.208Z,13.97
2018-06-15T03:15:54.241Z,14.11
2018-06-15T03:18:22.271Z,14.33
2018-06-15T03:20:50.444Z,14.74
2018-06-15T03:23:18.571Z,15.11
2018-06-15T03:25:46.537Z,15.09
2018-06-15T03:28:14.742Z,15.05
2018-06-15T03:30:42.701Z,14.98
2018-06-15T03:33:10.729Z,15.16
2018-06-15T03:35:38.892Z,15.15
2018-06-15T03:38:06.971Z,15.18
2018-06-15T03:40:35.060Z,15.23
2018-06-15T03:43:03.101Z,15.34
2018-06-15T03:45:31.154Z,15.87
2018-06-15T03:47:59.183Z,16.50
2018-06-15T03:50:27.130Z,16.93
2018-06-15T03:52:55.160Z,16.97
2018-06-15T03:55:23.171Z,17.90
2018-06-15T03:57:51.258Z,17.91
2018-06-15T04:00:19.284Z,17.87
2018-06-15T04:02:47.303Z,17.68
2018-06-15T04:05:15.361Z,17.45
2018-06-15T04:07:43.440Z,17.42
2018-06-15T04:10:11.592Z,17.29
2018-06-15T04:12:40.060Z,17.62
2018-06-15T04:15:08.076Z,19.04
2018-06-15T04:17:36.039Z,19.81
2018-06-15T04:20:04.331Z,19.24
2018-06-15T04:22:32.445Z,18.49
2018-06-15T04:25:00.845Z,17.95
2018-06-15T04:27:29.284Z,17.47
2018-06-15T04:29:57.439Z,17.64
2018-06-15T04:32:25.512Z,17.81
2018-06-15T04:34:53.574Z,18.44
2018-06-15T04:37:21.691Z,18.57
2018-06-15T04:39:49.771Z,18.72
2018-06-15T04:42:17.885Z,18.47
2018-06-15T04:44:46.217Z,18.29
2018-06-15T04:47:14.351Z,18.63
2018-06-15T04:49:42.508Z,18.51
2018-06-15T04:52:10.588Z,19.05
2018-06-15T04:54:38.661Z,18.40
2018-06-15T04:57:06.759Z,17.91
2018-06-15T04:59:34.831Z,17.58
2018-06-15T05:02:02.952Z,17.17
2018-06-15T05:04:31.168Z,17.30
2018-06-15T05:06:59.295Z,17.30
2018-06-15T05:09:27.526Z,17.25
2018-06-15T05:11:55.691Z,17.05
2018-06-15T05:14:23.808Z,17.11
2018-06-15T05:16:51.962Z,17.23
2018-06-15T05:19:20.147Z,17.10
2018-06-15T05:21:48.243Z,16.85
2018-06-15T05:24:16.366Z,16.74
2018-06-15T05:26:44.482Z,16.73
2018-06-15T05:29:12.753Z,16.77
2018-06-15T05:31:40.816Z,16.66
2018-06-15T05:34:09.159Z,16.74
2018-06-15T05:36:37.200Z,16.98
2018-06-15T05:39:08.212Z,17.21
2018-06-15T05:41:36.703Z,17.90
2018-06-15T05:44:04.864Z,18.60
2018-06-15T05:46:33.128Z,19.84
2018-06-15T05:49:01.267Z,20.78
2018-06-15T05:51:29.450Z,21.67
2018-06-15T05:53:57.659Z,20.03
2018-06-15T05:56:26.091Z,19.73
2018-06-15T05:58:54.892Z,19.23
2018-06-15T06:01:23.328Z,19.71
2018-06-15T06:03:51.574Z,20.28
2018-06-15T06:06:19.805Z,20.32
2018-06-15T06:08:48.402Z,21.36
2018-06-15T06:11:16.991Z,21.50
2018-06-15T06:13:45.440Z,22.38
2018-06-15T06:16:13.998Z,22.07
2018-06-15T06:18:42.419Z,22.83
2018-06-15T06:21:10.690Z,22.96
2018-06-15T06:23:38.971Z,22.06
2018-06-15T06:26:07.144Z,22.18
2018-06-15T06:28:35.680Z,21.81
2018-06-15T06:31:04.030Z,22.20
2018-06-15T06:33:32.759Z,21.56
2018-06-15T06:36:01.064Z,21.06
2018-06-15T06:38:29.700Z,21.10
2018-06-15T06:40:57.908Z,21.03
2018-06-15T06:43:26.093Z,20.97
2018-06-15T06:45:54.191Z,20.75
2018-06-15T06:48:22.431Z,20.94
2018-06-15T06:50:50.869Z,21.04
2018-06-15T06:53:19.307Z,20.92
2018-06-15T06:55:47.497Z,20.91
2018-06-15T06:58:15.654Z,20.86
2018-06-15T07:00:43.752Z,20.56
2018-06-15T07:03:11.964Z,21.74
2018-06-15T07:05:40.167Z,22.47
2018-06-15T07:08:08.273Z,22.63
2018-06-15T07:10:36.584Z,22.97
2018-06-15T07:13:04.840Z,22.55
2018-06-15T07:15:33.029Z,22.49
2018-06-15T07:18:01.115Z,22.34
2018-06-15T07:20:29.409Z,21.81
2018-06-15T07:22:57.720Z,21.82
2018-06-15T07:25:25.975Z,21.68
2018-06-15T07:27:54.245Z,21.66
2018-06-15T07:30:22.598Z,22.36
2018-06-15T07:32:50.888Z,23.11
2018-06-15T07:35:19.031Z,23.13
2018-06-15T07:37:47.340Z,23.43
2018-06-15T07:40:15.840Z,24.01
2018-06-15T07:42:43.949Z,24.55
2018-06-15T07:45:12.298Z,24.40
2018-06-15T07:47:40.735Z,24.85
2018-06-15T07:50:08.963Z,24.92
2018-06-15T07:52:37.536Z,24.30
2018-06-15T07:55:06.205Z,24.88
2018-06-15T07:57:34.374Z,24.90
2018-06-15T08:00:02.752Z,24.88
2018-06-15T08:02:31.070Z,25.35
2018-06-15T08:04:59.400Z,24.92
2018-06-15T08:07:27.797Z,24.26
2018-06-15T08:09:55.963Z,23.68
2018-06-15T08:12:24.175Z,23.54
2018-06-15T08:14:52.428Z,22.44
2018-06-15T08:17:20.689Z,23.18
2018-06-15T08:19:49.076Z,23.98
2018-06-15T08:22:17.178Z,24.77
2018-06-15T08:24:45.372Z,24.42
2018-06-15T08:27:13.410Z,24.54
2018-06-15T08:29:41.566Z,24.75
2018-06-15T08:32:10.060Z,24.49
2018-06-15T08:34:38.239Z,24.91
2018-06-15T08:37:06.424Z,24.84
2018-06-15T08:39:34.633Z,23.61
2018-06-15T08:42:02.793Z,24.03
2018-06-15T08:44:31.176Z,24.57
2018-06-15T08:46:59.294Z,24.42
2018-06-15T08:49:27.419Z,24.69
2018-06-15T08:51:55.747Z,24.90
2018-06-15T08:54:24.278Z,25.57
2018-06-15T08:56:52.526Z,25.42
2018-06-15T08:59:20.808Z,25.19
2018-06-15T09:01:49.515Z,24.55
2018-06-15T09:04:17.958Z,23.72
2018-06-15T09:06:46.318Z,24.73
2018-06-15T09:09:14.556Z,25.41
2018-06-15T09:11:42.696Z,25.51
2018-06-15T09:14:10.940Z,25.47
2018-06-15T09:16:40.027Z,25.40
2018-06-15T09:19:08.420Z,25.78
2018-06-15T09:21:37.526Z,25.73
2018-06-15T09:24:05.828Z,24.86
2018-06-15T09:26:34.345Z,25.47
2018-06-15T09:29:02.605Z,26.06
2018-06-15T09:31:30.873Z,25.65
2018-06-15T09:33:59.147Z,25.34
2018-06-15T09:36:27.278Z,25.74
2018-06-15T09:38:56.011Z,26.86
2018-06-15T09:41:24.834Z,27.53
2018-06-15T09:43:53.465Z,26.58
2018-06-15T09:46:21.874Z,26.64
2018-06-15T09:48:50.030Z,26.71
2018-06-15T09:51:18.367Z,26.13
2018-06-15T09:53:46.752Z,26.30
2018-06-15T09:56:15.150Z,27.13
2018-06-15T09:58:43.870Z,27.25
2018-06-15T10:01:12.787Z,26.20
2018-06-15T10:03:43.232Z,25.87
2018-06-15T10:06:12.719Z,26.65
2018-06-15T10:08:42.708Z,25.83
2018-06-15T10:11:12.096Z,24.32
2018-06-15T10:13:41.393Z,23.97
2018-06-15T10:16:10.508Z,23.68
2018-06-15T10:18:39.627Z,23.09
2018-06-15T10:21:08.506Z,22.94
2018-06-15T10:23:37.578Z,21.90
2018-06-15T10:26:07.035Z,20.99
2018-06-15T10:28:39.544Z,20.23
2018-06-15T10:31:08.106Z,19.97
2018-06-15T10:33:36.838Z,20.18
2018-06-15T10:36:06.207Z,20.48
2018-06-15T10:38:35.097Z,20.39
2018-06-15T10:41:04.284Z,20.65
2018-06-15T10:43:33.513Z,20.66
2018-06-15T10:46:02.327Z,20.50
2018-06-15T10:48:31.222Z,20.48
2018-06-15T10:51:00.403Z,20.40
2018-06-15T10:53:29.316Z,20.64
2018-06-15T10:55:58.941Z,20.45
2018-06-15T10:58:28.206Z,20.54
2018-06-15T11:00:57.660Z,20.55
2018-06-15T11:03:26.837Z,20.62
2018-06-15T11:05:56.631Z,20.75
2018-06-15T11:08:25.396Z,20.87
2018-06-15T11:10:54.045Z,21.01
2018-06-15T11:13:23.073Z,21.10
2018-06-15T11:15:51.958Z,21.50
2018-06-15T11:18:20.690Z,21.91
2018-06-15T11:20:49.448Z,22.34
2018-06-15T11:23:18.862Z,23.13
2018-06-15T11:25:47.415Z,23.56
2018-06-15T11:28:16.053Z,24.19
2018-06-15T11:30:44.696Z,24.65
2018-06-15T11:33:13.534Z,24.83
2018-06-15T11:35:42.354Z,25.38
2018-06-15T11:38:11.169Z,25.08
2018-06-15T11:40:40.791Z,24.80
2018-06-15T11:43:09.685Z,24.71
2018-06-15T11:45:38.685Z,24.44
2018-06-15T11:48:07.493Z,24.14
2018-06-15T11:50:36.283Z,23.62
2018-06-15T11:53:05.122Z,23.85
2018-06-15T11:55:33.892Z,23.92
2018-06-15T11:58:02.677Z,23.73
2018-06-15T12:00:31.299Z,23.18
2018-06-15T12:03:00.400Z,22.72
2018-06-15T12:05:29.861Z,22.78
2018-06-15T12:07:58.570Z,22.37
2018-06-15T12:10:27.433Z,22.38
2018-06-15T12:12:56.700Z,21.97
2018-06-15T12:15:29.321Z,21.74
2018-06-15T12:18:06.524Z,21.80
2018-06-15T12:20:41.128Z,21.92
2018-06-15T12:23:30.486Z,21.70
2018-06-15T12:26:05.785Z,21.89
2018-06-15T12:28:36.281Z,21.96
2018-06-15T12:31:06.001Z,21.89
2018-06-15T12:33:38.888Z,21.63
2018-06-15T12:36:12.332Z,21.55
2018-06-15T12:38:41.882Z,21.58
2018-06-15T12:41:11.592Z,21.43
2018-06-15T12:43:40.669Z,21.34
2018-06-15T12:46:09.275Z,21.50
2018-06-15T12:48:38.428Z,21.48
2018-06-15T12:51:07.516Z,21.03
2018-06-15T12:53:36.824Z,21.38
2018-06-15T12:56:08.513Z,21.25
2018-06-15T12:58:39.873Z,21.05
2018-06-15T13:01:09.080Z,21.59
2018-06-15T13:03:38.608Z,21.68
2018-06-15T13:06:10.539Z,22.03
2018-06-15T13:08:46.416Z,21.78
2018-06-15T13:11:18.470Z,21.88
2018-06-15T13:13:51.816Z,21.90
2018-06-15T13:16:34.752Z,22.03
2018-06-15T13:19:06.412Z,21.55
2018-06-15T13:21:49.158Z,21.87
2018-06-15T13:24:19.764Z,21.96
2018-06-15T13:26:52.746Z,21.75
2018-06-15T13:29:21.576Z,21.96
2018-06-15T13:31:50.551Z,22.07
2018-06-15T13:34:19.421Z,21.68
2018-06-15T13:36:48.353Z,21.79
2018-06-15T13:39:17.025Z,21.80
2018-06-15T13:41:49.916Z,21.71
2018-06-15T13:44:19.693Z,21.99
2018-06-15T13:46:50.092Z,22.44
2018-06-15T13:49:20.554Z,22.94
2018-06-15T13:51:49.635Z,22.90
2018-06-15T13:54:18.073Z,23.05
2018-06-15T13:56:47.237Z,23.10
2018-06-15T13:59:16.076Z,23.18
2018-06-15T14:01:45.349Z,22.93
2018-06-15T14:04:14.297Z,22.29
2018-06-15T14:06:43.518Z,22.01
2018-06-15T14:09:12.325Z,22.18
2018-06-15T14:11:41.188Z,22.52
2018-06-15T14:14:09.784Z,22.88
2018-06-15T14:16:39.192Z,23.02
2018-06-15T14:19:08.002Z,23.06
2018-06-15T14:21:36.616Z,23.23
2018-06-15T14:24:05.439Z,23.06
2018-06-15T14:26:34.265Z,23.35
2018-06-15T14:29:04.226Z,22.80
2018-06-15T14:31:33.076Z,22.62
2018-06-15T14:34:02.287Z,22.28
2018-06-15T14:36:31.225Z,22.05
2018-06-15T14:38:59.915Z,21.42
2018-06-15T14:41:28.886Z,21.53
2018-06-15T14:43:58.243Z,20.27
2018-06-15T14:46:27.468Z,20.09
2018-06-15T14:48:58.114Z,20.18
2018-06-15T14:51:27.925Z,19.88
2018-06-15T14:53:57.470Z,19.94
2018-06-15T14:56:27.208Z,20.07
2018-06-15T14:58:56.341Z,19.73
2018-06-15T15:01:25.956Z,19.50
2018-06-15T15:03:54.922Z,19.44
2018-06-15T15:06:24.557Z,19.26
2018-06-15T15:08:54.361Z,19.20
2018-06-15T15:11:22.982Z,18.84
2018-06-15T15:13:51.920Z,18.54
2018-06-15T15:16:22.552Z,18.26
2018-06-15T15:18:52.032Z,17.93
2018-06-15T15:21:21.402Z,17.73
2018-06-15T15:23:52.291Z,17.40
2018-06-15T15:26:22.854Z,17.48
2018-06-15T15:28:52.775Z,17.31
2018-06-15T15:31:22.149Z,17.25
2018-06-15T15:33:51.364Z,17.25
2018-06-15T15:36:21.275Z,17.14
2018-06-15T15:38:50.338Z,17.28
2018-06-15T15:41:19.083Z,17.25
2018-06-15T15:43:47.876Z,17.07
2018-06-15T15:46:16.559Z,16.92
2018-06-15T15:48:45.356Z,16.85
2018-06-15T15:51:14.376Z,16.76
2018-06-15T15:53:44.825Z,17.07
2018-06-15T15:56:14.111Z,16.83
2018-06-15T15:58:43.189Z,16.62
2018-06-15T16:01:12.193Z,16.45
2018-06-15T16:03:41.126Z,16.61
2018-06-15T16:06:10.212Z,16.52
2018-06-15T16:08:39.099Z,16.53
2018-06-15T16:11:08.593Z,16.50
2018-06-15T16:13:37.833Z,16.48
2018-06-15T16:16:08.109Z,16.49
2018-06-15T16:18:37.273Z,16.51
2018-06-15T16:21:07.268Z,16.52
2018-06-15T16:23:36.557Z,16.33
2018-06-15T16:26:05.692Z,16.17
2018-06-15T16:28:35.003Z,15.98
2018-06-15T16:31:04.411Z,15.90
2018-06-15T16:33:33.174Z,16.08
2018-06-15T16:36:02.141Z,16.00
2018-06-15T16:38:31.350Z,15.95
2018-06-15T16:41:00.618Z,15.85
2018-06-15T16:43:29.469Z,15.72
2018-06-15T16:45:58.313Z,15.73
2018-06-15T16:48:27.011Z,15.74
2018-06-15T16:50:56.104Z,15.74
2018-06-15T16:53:25.066Z,15.64
2018-06-15T16:55:54.170Z,15.71
2018-06-15T16:58:22.794Z,15.72
2018-06-15T17:00:54.032Z,15.58
2018-06-15T17:03:23.757Z,15.60
2018-06-15T17:05:53.021Z,15.46
2018-06-15T17:08:22.585Z,15.47
2018-06-15T17:10:51.511Z,15.58
2018-06-15T17:13:23.844Z,15.60
2018-06-15T17:15:54.113Z,15.54
2018-06-15T17:18:23.009Z,15.45
2018-06-15T17:20:52.268Z,15.43
2018-06-15T17:23:21.530Z,15.53
2018-06-15T17:25:50.695Z,15.35
2018-06-15T17:28:19.497Z,15.39
2018-06-15T17:30:49.770Z,15.42
2018-06-15T17:33:18.508Z,15.48
2018-06-15T17:35:48.351Z,15.27
2018-06-15T17:38:17.192Z,15.15
2018-06-15T17:40:47.108Z,15.14
2018-06-15T17:43:16.149Z,15.19
2018-06-15T17:45:45.206Z,15.16
2018-06-15T17:48:14.723Z,15.15
2018-06-15T17:50:43.458Z,15.12
2018-06-15T17:56:09.969Z,14.91
2018-06-15T17:58:38.673Z,14.88
2018-06-15T18:01:07.664Z,14.79
2018-06-15T18:03:36.327Z,14.60
2018-06-15T18:06:05.337Z,14.55
2018-06-15T18:08:34.844Z,14.48
2018-06-15T18:11:03.838Z,14.29
2018-06-15T18:13:32.554Z,14.20
2018-06-15T18:16:01.434Z,14.18
2018-06-15T18:18:51.280Z,14.12
2018-06-15T18:21:19.998Z,14.08
2018-06-15T18:23:48.825Z,14.10
2018-06-15T18:26:21.080Z,14.04
2018-06-15T18:28:50.028Z,13.92
2018-06-15T18:31:20.467Z,13.96
2018-06-15T18:33:49.495Z,13.85
2018-06-15T18:36:19.002Z,13.85
2018-06-15T18:38:49.801Z,13.92
2018-06-15T18:41:18.414Z,13.92
2018-06-15T18:43:48.713Z,13.79
2018-06-15T18:46:23.612Z,13.77
2018-06-15T18:51:36.444Z,13.79
2018-06-15T18:54:05.151Z,13.81
2018-06-15T18:56:34.037Z,13.83
2018-06-15T18:59:02.736Z,13.84
2018-06-15T19:01:31.435Z,13.81
2018-06-15T19:04:00.026Z,13.87
2018-06-15T19:06:28.778Z,13.92
2018-06-15T19:08:57.241Z,13.88
2018-06-15T19:11:27.479Z,13.86
2018-06-15T19:13:56.791Z,13.93
2018-06-15T19:16:27.398Z,14.01
2018-06-15T19:18:57.472Z,13.94
2018-06-15T19:21:28.715Z,13.93
2018-06-15T19:23:59.283Z,13.98
2018-06-15T19:26:29.699Z,14.02
2018-06-15T19:28:59.586Z,14.03
2018-06-15T19:31:29.007Z,14.02
2018-06-15T19:33:59.188Z,13.99
2018-06-15T19:36:28.921Z,13.98
2018-06-15T19:38:58.144Z,13.98
2018-06-15T19:41:28.672Z,14.05
2018-06-15T19:43:57.613Z,14.09
2018-06-15T19:46:28.345Z,14.05
2018-06-15T19:49:00.022Z,14.06
2018-06-15T19:51:29.790Z,14.09
2018-06-15T19:53:58.959Z,14.07
2018-06-15T19:56:31.280Z,14.16
2018-06-15T19:59:00.341Z,14.12
2018-06-15T20:01:29.257Z,14.15
2018-06-15T20:03:58.853Z,14.22
2018-06-15T20:06:27.614Z,14.28
2018-06-15T20:08:56.404Z,14.31
2018-06-15T20:11:25.292Z,14.32
2018-06-15T20:13:54.336Z,14.30
2018-06-15T20:16:22.932Z,14.28
2018-06-15T20:18:51.639Z,14.27
2018-06-15T20:21:20.213Z,14.29
2018-06-15T20:23:48.719Z,14.31
2018-06-15T20:26:17.394Z,14.30
2018-06-15T20:28:46.169Z,14.32
2018-06-15T20:31:14.702Z,14.34
2018-06-15T20:33:43.587Z,14.29
2018-06-15T20:36:12.394Z,14.29
2018-06-15T20:38:41.227Z,14.29
2018-06-15T20:41:10.441Z,14.25
2018-06-15T20:43:39.243Z,14.26
2018-06-15T20:46:07.998Z,14.27
2018-06-15T20:48:36.741Z,14.30
2018-06-15T20:51:05.481Z,14.33
2018-06-15T20:53:34.068Z,14.23
2018-06-15T20:56:02.736Z,14.23
2018-06-15T20:58:31.471Z,14.22
2018-06-15T21:00:59.979Z,14.16
2018-06-15T21:03:28.521Z,14.20
2018-06-15T21:05:57.155Z,14.22
2018-06-15T21:08:25.780Z,14.21
2018-06-15T21:10:54.365Z,14.15
2018-06-15T21:13:22.975Z,14.13
2018-06-15T21:15:52.373Z,14.17
2018-06-15T21:18:20.935Z,14.16
2018-06-15T21:20:49.843Z,14.11
2018-06-15T21:23:18.434Z,14.14
2018-06-15T21:25:47.016Z,14.15
2018-06-15T21:28:15.203Z,14.19
2018-06-15T21:30:43.294Z,14.17
2018-06-15T21:33:11.312Z,14.18
2018-06-15T21:35:39.325Z,14.14
2018-06-15T21:38:07.361Z,14.17
2018-06-15T21:40:35.483Z,14.21
2018-06-15T21:43:03.561Z,14.22
2018-06-15T21:45:31.741Z,14.18
2018-06-15T21:47:59.808Z,14.21
2018-06-15T21:50:27.853Z,14.16
2018-06-15T21:52:56.005Z,14.19
2018-06-15T21:55:25.269Z,14.20
2018-06-15T21:57:53.418Z,14.23
2018-06-15T22:00:21.410Z,14.21
2018-06-15T22:02:49.511Z,14.22
2018-06-15T22:05:18.203Z,14.18
2018-06-15T22:07:46.309Z,14.18
2018-06-15T22:10:14.399Z,14.17
2018-06-15T22:12:42.508Z,14.15
2018-06-15T22:15:10.579Z,14.16
2018-06-15T22:17:38.616Z,14.04
2018-06-15T22:20:06.729Z,14.12
2018-06-15T22:22:34.791Z,14.15
2018-06-15T22:25:02.886Z,14.14
2018-06-15T22:27:30.945Z,14.18
2018-06-15T22:29:58.944Z,14.18
2018-06-15T22:32:26.947Z,14.14
2018-06-15T22:34:54.980Z,14.14
2018-06-15T22:37:23.117Z,14.17
2018-06-15T22:39:51.208Z,14.16
2018-06-15T22:42:19.266Z,14.18
2018-06-15T22:44:47.255Z,14.18
2018-06-15T22:47:15.321Z,14.21
2018-06-15T22:49:43.325Z,14.23
2018-06-15T22:52:11.408Z,14.13
2018-06-15T22:54:39.506Z,14.23
2018-06-15T22:57:07.652Z,14.17
2018-06-15T22:59:35.685Z,14.12
2018-06-15T23:02:03.699Z,14.14
2018-06-15T23:04:31.803Z,14.10
2018-06-15T23:06:59.847Z,14.10
2018-06-15T23:09:27.955Z,14.08
2018-06-15T23:11:56.001Z,14.10
2018-06-15T23:14:24.049Z,14.11
2018-06-15T23:16:52.180Z,14.11
2018-06-15T23:19:20.241Z,14.06
2018-06-15T23:21:48.240Z,14.06
2018-06-15T23:24:16.238Z,14.04
2018-06-15T23:26:44.355Z,14.04
2018-06-15T23:29:12.428Z,14.00
2018-06-15T23:31:40.440Z,14.01
2018-06-15T23:34:08.493Z,14.02
2018-06-15T23:36:36.703Z,13.95
2018-06-15T23:39:07.064Z,13.96
2018-06-15T23:41:35.123Z,13.96
2018-06-15T23:44:03.440Z,13.95
2018-06-15T23:46:31.564Z,13.98
2018-06-15T23:48:59.655Z,13.96
2018-06-15T23:51:27.679Z,13.95
2018-06-15T23:53:55.738Z,13.91
2018-06-15T23:56:23.809Z,13.92
2018-06-15T23:58:51.785Z,13.92
